Latest Weather Observations for Marble Bar

IDW60801

Issued at 8:33 am WST Monday 21 August 2017 (issued every 30 minutes, with the page automatically refreshed every 10 minutes)

About weather observations | Map of weather stations | Latest weather observations for WA | Other Formats
Station Details ID: 004106 Name: MARBLE BAR Lat: -21.18 Lon: 119.75 Height: 182.3 m
Data from the previous 72 hours. | See also: Recent months at Marble Bar
Date/Time
WST
Temp
°C
App
Temp
°C
Dew
Point
°C
Rel
Hum
%
Delta-T
°C
Wind Press
QNH
hPa
Press
MSL
hPa
Rain since
9am
mm
Dir  Spd
km/h
Gust
km/h
Spd
kts
Gust
kts
21/08:30am 22.4 16.6 -1.6 20 10.6 ESE 19 28 10 15 1018.3 1017.6 0.0
21/08:00am 20.9 14.8 -2.2 21 9.9 SE 20 28 11 15 1018.2 1017.5 0.0
21/07:30am 19.9 15.1 -2.4 22 9.5 SE 13 19 7 10 1018.0 1017.3 0.0
21/07:00am 18.8 14.4 -2.7 23 9.0 SE 11 15 6 8 1017.6 1017.0 0.0
21/06:30am 17.6 13.1 -3.2 24 8.5 SE 11 13 6 7 1017.3 1016.7 0.0
21/06:00am 17.1 13.3 -3.6 24 8.3 SE 7 13 4 7 1016.9 1016.3 0.0
21/05:30am 17.2 13.6 -3.5 24 8.4 SE 6 11 3 6 1016.5 1015.9 0.0
21/05:00am 17.7 14.2 -3.1 24 8.5 SSE 6 7 3 4 1016.2 1015.6 0.0
21/04:30am 18.7 14.2 -3.4 22 9.1 SE 11 13 6 7 1015.8 1015.2 0.0
21/04:00am 19.1 14.7 -2.5 23 9.1 SE 11 19 6 10 1015.7 1015.1 0.0
21/03:30am 19.0 14.8 -0.9 26 8.6 SSE 11 17 6 9 1015.9 1015.3 0.0
21/03:00am 17.4 14.6 1.8 35 7.1 SSE 6 11 3 6 1016.0 1015.4 0.0
21/02:30am 17.9 15.2 2.6 36 7.1 SSE 6 6 3 3 1016.1 1015.5 0.0
21/02:00am 18.5 16.2 2.8 35 7.3 SSE 4 6 2 3 1016.0 1015.4 0.0
21/01:30am 19.0 16.4 3.2 35 7.5 SSE 6 9 3 5 1015.8 1015.2 0.0
21/01:00am 19.1 17.0 3.7 36 7.3 SSE 4 7 2 4 1016.0 1015.4 0.0
21/12:30am 19.6 17.5 4.1 36 7.5 SSE 4 6 2 3 1016.1 1015.5 0.0
21/12:00am 20.0 17.6 4.5 36 7.5 SSE 6 7 3 4 1016.1 1015.5 0.0
 
Date/Time
WST
Temp
°C
App
Temp
°C
Dew
Point
°C
Rel
Hum
%
Delta-T
°C
Wind Press
QNH
hPa
Press
MSL
hPa
Rain since
9am
mm
Dir  Spd
km/h
Gust
km/h
Spd
kts
Gust
kts
20/11:30pm 19.7 17.4 4.6 37 7.4 SSE 6 7 3 4 1016.2 1015.6 0.0
20/11:00pm 20.3 18.4 4.8 36 7.6 SSE 4 4 2 2 1016.1 1015.5 0.0
20/10:30pm 19.6 17.7 4.9 38 7.2 SSE 4 4 2 2 1016.2 1015.6 0.0
20/10:00pm 21.2 19.3 4.7 34 8.1 SE 4 6 2 3 1016.2 1015.6 0.0
20/09:30pm 21.9 19.4 4.9 33 8.5 SE 7 7 4 4 1016.0 1015.4 0.0
20/09:00pm 23.1 19.9 5.1 31 9.1 SE 11 13 6 7 1016.0 1015.4 0.0
20/08:30pm 23.4 20.5 4.9 30 9.3 SE 9 11 5 6 1015.9 1015.3 0.0
20/08:00pm 23.8 21.0 5.2 30 9.4 SE 9 11 5 6 1015.8 1015.2 0.0
20/07:30pm 24.9 21.7 5.2 28 10.1 SE 11 13 6 7 1015.6 1015.0 0.0
20/07:00pm 26.0 22.4 5.0 26 10.7 SE 13 17 7 9 1015.3 1014.7 0.0
20/06:30pm 26.4 23.5 4.8 25 11.0 SSE 9 13 5 7 1015.1 1014.5 0.0
20/06:00pm 27.2 24.6 4.3 23 11.7 SSE 7 11 4 6 1014.8 1014.1 0.0
20/05:30pm 28.6 25.2 4.2 21 12.5 SSE 11 15 6 8 1014.5 1013.8 0.0
20/05:00pm 29.6 27.6 4.3 20 13.1 S 4 9 2 5 1014.3 1013.6 0.0
20/04:30pm 30.3 28.0 4.9 20 13.3 S 6 13 3 7 1014.1 1013.4 0.0
20/04:00pm 30.9 28.6 4.6 19 13.8 SSE 6 9 3 5 1013.9 1013.2 0.0
20/03:30pm 30.9 28.0 4.6 19 13.8 SE 9 17 5 9 1013.9 1013.2 0.0
20/03:00pm 30.1 27.2 4.7 20 13.3 SE 9 15 5 8 1014.0 1013.3 0.0
20/02:30pm 29.9 26.7 5.2 21 13.0 ESE 11 19 6 10 1014.3 1013.6 0.0
20/02:00pm 29.5 25.5 4.9 21 12.8 SSE 15 20 8 11 1014.8 1014.1 0.0
20/01:30pm 28.9 24.9 5.1 22 12.4 SSE 15 24 8 13 1015.1 1014.5 0.0
20/01:00pm 29.1 25.2 5.2 22 12.5 SSE 15 28 8 15 1015.6 1015.0 0.0
20/12:30pm 28.5 24.2 5.4 23 12.1 SSE 17 28 9 15 1016.2 1015.6 0.0
20/12:00pm 27.7 22.7 4.7 23 11.8 SSE 20 33 11 18 1016.8 1016.2 0.0
20/11:30am 26.7 21.4 5.1 25 11.1 SE 22 32 12 17 1017.2 1016.6 0.0
20/11:00am 25.9 20.6 4.9 26 10.7 SSE 22 32 12 17 1017.9 1017.2 0.0
20/10:30am 25.6 20.0 5.2 27 10.5 SSE 24 32 13 17 1018.4 1017.7 0.0
20/10:00am 24.8 18.8 5.1 28 10.0 SSE 26 39 14 21 1018.8 1018.1 0.0
20/09:30am 23.9 17.8 4.8 29 9.6 SSE 26 37 14 20 1019.1 1018.4 0.0
20/09:00am 23.4 17.8 5.3 31 9.1 SSE 24 37 13 20 1019.1 1018.4 0.0
20/08:30am 21.9 16.7 5.3 34 8.3 SSE 22 32 12 17 1018.9 1018.2 0.0
20/08:00am 21.2 16.5 5.1 35 8.0 SSE 19 26 10 14 1018.6 1017.9 0.0
20/07:30am 21.3 17.2 6.0 37 7.7 SSE 17 28 9 15 1018.2 1017.5 0.0
20/07:00am 21.2 17.5 6.3 38 7.6 SSE 15 24 8 13 1017.5 1016.9 0.0
20/06:30am 21.3 17.5 5.6 36 7.9 S 15 22 8 12 1017.2 1016.6 0.0
20/06:00am 22.0 18.1 5.4 34 8.3 S 15 24 8 13 1016.9 1016.3 0.0
20/05:30am 22.7 18.9 5.6 33 8.7 SSE 15 24 8 13 1016.5 1015.9 0.0
20/05:00am 23.1 19.6 5.5 32 8.9 SSE 13 24 7 13 1015.9 1015.3 0.0
20/04:30am 23.0 20.6 7.1 36 8.3 S 9 15 5 8 1015.8 1015.2 0.0
20/04:00am 22.0 21.5 12.5 54 5.4 SW 7 9 4 5 1015.6 1015.0 0.0
20/03:30am 22.2 22.7 12.7 55 5.5 S 2 4 1 2 1015.5 1014.9 0.0
20/03:00am 22.6 22.1 12.8 54 5.6 SW 7 11 4 6 1015.6 1015.0 0.0
20/02:30am 21.3 20.3 10.2 49 6.1 S 6 7 3 4 1015.6 1015.0 0.0
20/02:00am 21.6 21.4 10.4 49 6.2 SSE 2 4 1 2 1015.3 1014.7 0.0
20/01:30am 21.8 21.6 10.3 48 6.3 SE 2 4 1 2 1015.2 1014.6 0.0
20/01:00am 21.9 21.6 10.1 47 6.5 NW 2 6 1 3 1015.3 1014.7 0.0
20/12:30am 22.9 23.4 11.6 49 6.4 CALM 0 4 0 2 1015.1 1014.5 0.0
20/12:00am 23.1 22.6 10.9 46 6.8 N 4 4 2 2 1015.4 1014.8 0.0
 
Date/Time
WST
Temp
°C
App
Temp
°C
Dew
Point
°C
Rel
Hum
%
Delta-T
°C
Wind Press
QNH
hPa
Press
MSL
hPa
Rain since
9am
mm
Dir  Spd
km/h
Gust
km/h
Spd
kts
Gust
kts
19/11:30pm 23.0 22.6 9.8 43 7.2 N 2 2 1 1 1015.5 1014.9 0.0
19/11:00pm 24.0 22.7 9.2 39 8.1 N 6 7 3 4 1015.5 1014.9 0.0
19/10:30pm 23.9 22.3 8.7 38 8.2 N 7 9 4 5 1015.6 1015.0 0.0
19/10:00pm 25.6 24.1 9.0 35 9.1 N 7 9 4 5 1015.6 1015.0 0.0
19/09:30pm 24.6 24.5 9.3 38 8.4 CALM 0 2 0 1 1015.6 1015.0 0.0
19/09:00pm 24.3 23.7 9.1 38 8.3 N 2 4 1 2 1015.3 1014.7 0.0
19/08:30pm 23.8 23.5 8.6 38 8.2 CALM 0 0 0 0 1015.3 1014.7 0.0
19/08:00pm 25.1 24.4 8.6 35 9.0 WNW 2 4 1 2 1015.1 1014.5 0.0
19/07:30pm 27.2 25.7 8.6 31 10.2 WNW 6 6 3 3 1014.9 1014.2 0.0
19/07:00pm 27.9 26.2 8.2 29 10.8 WNW 7 9 4 5 1014.5 1013.8 0.0
19/06:30pm 29.2 27.1 8.3 27 11.5 WNW 9 15 5 8 1014.1 1013.4 0.0
19/06:00pm 29.9 27.4 8.3 26 12.0 WNW 11 17 6 9 1013.7 1013.0 0.0
19/05:30pm 31.0 28.1 8.1 24 12.7 WNW 13 22 7 12 1013.4 1012.7 0.0
19/05:00pm 31.9 27.7 7.5 22 13.5 NW 19 28 10 15 1013.2 1012.5 0.0
19/04:30pm 32.7 28.5 7.5 21 14.0 WNW 19 26 10 14 1012.9 1012.2 0.0
19/04:00pm 33.5 30.1 7.5 20 14.5 WNW 15 24 8 13 1012.7 1012.0 0.0
19/03:30pm 33.2 29.3 7.2 20 14.4 NW 17 28 9 15 1012.8 1012.1 0.0
19/03:00pm 33.6 29.4 7.6 20 14.5 NW 19 30 10 16 1012.8 1012.1 0.0
19/02:30pm 33.7 29.3 7.6 20 14.6 WNW 20 30 11 16 1013.0 1012.3 0.0
19/02:00pm 33.6 30.6 7.6 20 14.5 WNW 13 19 7 10 1013.0 1012.3 0.0
19/01:30pm 33.5 29.7 7.5 20 14.5 WNW 17 30 9 16 1013.2 1012.5 0.0
19/01:00pm 32.7 29.7 7.5 21 14.0 WNW 13 22 7 12 1013.7 1013.0 0.0
19/12:30pm 32.9 29.7 7.0 20 14.3 WNW 13 22 7 12 1014.2 1013.5 0.0
19/12:00pm 32.3 29.8 6.5 20 14.0 W 9 13 5 7 1014.7 1014.0 0.0
19/11:30am 31.3 29.1 6.4 21 13.5 NW 7 17 4 9 1015.0 1014.4 0.0
19/11:00am 30.2 28.1 6.8 23 12.7 NW 7 17 4 9 1015.5 1014.9 0.0
19/10:30am 29.0 26.6 7.0 25 11.9 WSW 9 15 5 8 1016.0 1015.4 0.0
19/10:00am 28.6 26.2 7.2 26 11.5 SW 9 15 5 8 1016.4 1015.8 0.0
19/09:30am 27.0 25.5 6.9 28 10.7 SW 4 6 2 3 1016.8 1016.2 0.0
19/09:00am 25.2 23.7 6.9 31 9.6 SE 4 6 2 3 1016.8 1016.2 0.0
19/08:30am 24.1 23.4 6.8 33 9.0 CALM 0 4 0 2 1016.9 1016.3 0.0
19/08:00am 22.1 21.4 7.1 38 7.8 CALM 0 0 0 0 1016.8 1016.2 0.0
19/07:30am 18.4 17.7 6.9 47 5.8 CALM 0 0 0 0 1016.7 1016.1 0.0
19/07:00am 16.0 15.2 6.7 54 4.6 CALM 0 4 0 2 1016.4 1015.8 0.0
19/06:30am 15.2 13.9 6.0 54 4.5 ENE 2 4 1 2 1016.2 1015.6 0.0
19/06:00am 16.6 15.8 6.4 51 5.0 CALM 0 0 0 0 1015.9 1015.3 0.0
19/05:30am 17.8 14.9 6.7 48 5.6 SW 11 15 6 8 1015.8 1015.2 0.0
19/05:00am 18.2 16.1 6.7 47 5.8 WSW 7 13 4 7 1015.7 1015.1 0.0
19/04:30am 18.6 16.2 7.1 47 5.8 SW 9 13 5 7 1015.4 1014.8 0.0
19/04:00am 17.3 15.4 6.8 50 5.3 SW 6 7 3 4 1015.3 1014.7 0.0
19/03:30am 16.9 15.4 6.7 51 5.1 SSW 4 6 2 3 1015.4 1014.8 0.0
19/03:00am 16.6 15.3 6.1 50 5.2 SW 2 6 1 3 1015.5 1014.9 0.0
19/02:30am 16.6 15.3 6.1 50 5.2 S 2 6 1 3 1015.6 1015.0 0.0
19/02:00am 16.5 14.8 6.1 50 5.1 SW 4 6 2 3 1015.9 1015.3 0.0
19/01:30am 16.8 15.9 6.0 49 5.3 CALM 0 0 0 0 1016.1 1015.5 0.0
19/01:00am 17.9 17.1 6.4 47 5.7 CALM 0 0 0 0 1016.2 1015.6 0.0
19/12:30am 18.8 17.3 6.6 45 6.1 SW 4 6 2 3 1016.3 1015.7 0.0
19/12:00am 20.3 19.1 6.6 41 7.0 S 2 6 1 3 1016.2 1015.6 0.0
 
Date/Time
WST
Temp
°C
App
Temp
°C
Dew
Point
°C
Rel
Hum
%
Delta-T
°C
Wind Press
QNH
hPa
Press
MSL
hPa
Rain since
9am
mm
Dir  Spd
km/h
Gust
km/h
Spd
kts
Gust
kts
18/11:30pm 20.9 19.1 7.2 41 7.1 SW 6 7 3 4 1016.2 1015.6 0.0
18/11:00pm 20.1 19.0 6.8 42 6.8 SSE 2 4 1 2 1016.1 1015.5 0.0
18/10:30pm 22.1 20.3 7.1 38 7.8 WSW 6 7 3 4 1016.0 1015.4 0.0
18/10:00pm 21.7 20.4 6.0 36 8.0 S 2 2 1 1 1016.1 1015.5 0.0
18/09:30pm 21.6 20.2 5.5 35 8.1 NW 2 4 1 2 1016.1 1015.5 0.0
18/09:00pm 23.8 22.1 5.7 31 9.2 NNW 4 6 2 3 1016.0 1015.4 0.0
18/08:30pm 24.8 22.6 5.1 28 10.0 NW 6 9 3 5 1015.8 1015.2 0.0
18/08:00pm 25.2 22.6 4.3 26 10.5 N 7 11 4 6 1015.4 1014.8 0.0
18/07:30pm 25.7 23.3 4.2 25 10.8 N 6 9 3 5 1015.0 1014.4 0.0
18/07:00pm 25.2 23.8 3.8 25 10.7 CALM 0 0 0 0 1014.3 1013.6 0.0
18/06:30pm 27.1 25.6 2.9 21 12.0 CALM 0 0 0 0 1014.0 1013.3 0.0
18/06:00pm 29.7 26.9 2.9 18 13.5 NNW 7 9 4 5 1013.7 1013.0 0.0
18/05:30pm 31.2 28.5 2.4 16 14.6 NNW 6 7 3 4 1013.4 1012.7 0.0
18/05:00pm 32.4 28.7 2.5 15 15.3 NNW 11 13 6 7 1013.2 1012.5 0.0
18/04:30pm 32.9 29.7 2.9 15 15.5 N 9 15 5 8 1013.1 1012.4 0.0
18/04:00pm 33.0 28.5 2.0 14 15.7 NNE 15 20 8 11 1013.0 1012.3 0.0
18/03:30pm 32.5 28.4 2.5 15 15.3 NE 13 22 7 12 1013.0 1012.3 0.0
18/03:00pm 33.1 28.8 3.0 15 15.6 N 15 28 8 15 1013.1 1012.4 0.0
18/02:30pm 33.1 29.1 3.0 15 15.5 N 13 24 7 13 1013.3 1012.6 0.0
18/02:00pm 32.9 27.8 2.9 15 15.5 NNE 19 32 10 17 1013.5 1012.8 0.0
18/01:30pm 32.9 28.3 3.8 16 15.2 NE 17 28 9 15 1013.7 1013.0 0.0
18/01:00pm 32.3 29.3 4.2 17 14.7 NE 9 17 5 9 1014.2 1013.5 0.0
18/12:30pm 31.9 27.6 3.0 16 14.8 NNE 15 32 8 17 1014.8 1014.1 0.0
18/12:00pm 31.4 27.5 3.4 17 14.4 ENE 13 24 7 13 1015.1 1014.5 0.0
18/11:30am 30.9 26.2 3.0 17 14.2 E 17 24 9 13 1015.6 1015.0 0.0
18/11:00am 29.7 25.0 2.9 18 13.5 ENE 17 24 9 13 1016.2 1015.6 0.0
18/10:30am 28.8 24.2 1.3 17 13.4 NE 15 26 8 14 1016.7 1016.1 0.0
18/10:00am 28.2 23.3 1.7 18 13.0 ENE 17 26 9 14 1017.1 1016.5 0.0
18/09:30am 26.5 21.9 1.7 20 12.0 ENE 15 22 8 12 1017.3 1016.7 0.0
18/09:00am 24.8 20.6 1.7 22 11.0 E 13 22 7 12 1017.4 1016.8 0.0

Other Formats:

Comma delimited format used in spreadsheet applications
http://www.bom.gov.au/fwo/IDW60801/IDW60801.95317.axf

JavaScript Object Notation format (JSON) in row-major order
http://www.bom.gov.au/fwo/IDW60801/IDW60801.95317.json